page 5762 of 1004035 registered users

eBook PostsUsers

  1. 0stemrain3 registered @ 2013-02-02 15:35:44, last login @ 2013-02-02 15:57:01
  2. 0jute78format registered @ 2013-02-02 15:35:52, last login @ 2013-02-02 15:35:52
  3. 0brickpoint7 registered @ 2013-02-02 15:37:21, last login @ 2013-02-02 15:58:23
  4. 0gatemitten5 registered @ 2013-02-02 15:37:33, last login @ 2013-02-02 15:37:33
  5. 0closeturu90 registered @ 2013-02-02 15:38:42, last login @ 2013-02-02 15:38:42
  6. 0africa17shoe registered @ 2013-02-02 15:39:51, last login @ 2013-02-02 15:39:51
  7. 0fvulfp42 registered @ 2013-02-02 15:41:19, last login @ 2013-02-02 15:41:19
  8. 0icicleden0 registered @ 2013-02-02 15:41:26, last login @ 2013-02-02 15:41:26
  9. 0susan7deal registered @ 2013-02-02 15:42:42, last login @ 2013-02-02 15:42:42
  10. 0Ebookeeallen registered @ 2013-02-02 15:43:24, last login @ 2013-02-02 15:43:24
  11. 0baglatex6 registered @ 2013-02-02 15:43:28, last login @ 2013-02-02 15:43:28
  12. 0rolokong registered @ 2013-02-02 15:43:34, last login @ 2013-02-02 15:43:34
  13. 0beliefhammer1 registered @ 2013-02-02 15:46:49, last login @ 2013-02-02 15:46:49
  14. 0lung64rock registered @ 2013-02-02 15:47:46, last login @ 2013-02-02 15:47:46
  15. 0bacon13daisy registered @ 2013-02-02 15:47:50, last login @ 2013-02-02 15:47:50
  16. 0pilot7poison registered @ 2013-02-02 15:50:45, last login @ 2013-02-02 15:50:45
  17. 0silkpatch34 registered @ 2013-02-02 15:51:49, last login @ 2013-02-02 15:51:49
  18. 0music70health registered @ 2013-02-02 15:52:43, last login @ 2013-02-02 15:52:43
  19. 0fox77plant registered @ 2013-02-02 15:54:56, last login @ 2013-02-02 15:54:56
  20. 0yearnote7 registered @ 2013-02-02 15:55:19, last login @ 2013-02-02 15:55:19
  21. 0vise9lunch registered @ 2013-02-02 15:55:44, last login @ 2013-02-02 15:55:44
  22. 0hairsecure1 registered @ 2013-02-02 15:56:08, last login @ 2013-02-02 15:56:08
  23. 0report2swiss registered @ 2013-02-02 15:56:54, last login @ 2013-02-02 15:56:54
  24. 0value8peak registered @ 2013-02-02 15:58:11, last login @ 2013-02-02 15:58:11
  25. 0courttruck65 registered @ 2013-02-02 15:58:41, last login @ 2013-02-02 15:58:41
  26. 0breathoption8 registered @ 2013-02-02 15:58:53, last login @ 2013-02-02 15:58:53
  27. 0showbull82 registered @ 2013-02-02 15:59:26, last login @ 2013-02-02 15:59:26
  28. 0bladewitch0 registered @ 2013-02-02 16:01:05, last login @ 2013-02-02 16:01:05
  29. 0Guadalupey58 registered @ 2013-02-02 16:01:06, last login @ 2013-02-02 16:01:06
  30. 0cherryyear10 registered @ 2013-02-02 16:02:15, last login @ 2013-02-02 16:50:27
  31. 0heat1india registered @ 2013-02-02 16:02:15, last login @ 2013-02-02 16:02:15
  32. 0camera9helen registered @ 2013-02-02 16:02:23, last login @ 2013-02-02 16:02:23
  33. 0kite38tanker registered @ 2013-02-02 16:03:13, last login @ 2013-02-02 16:03:13
  34. 0price01shelf registered @ 2013-02-02 16:04:52, last login @ 2013-02-02 16:44:41
  35. 0tietuna24 registered @ 2013-02-02 16:05:17, last login @ 2013-02-02 16:05:17
  36. 0peppercarol06 registered @ 2013-02-02 16:05:39, last login @ 2013-02-02 16:05:39
  37. 0unclehole0 registered @ 2013-02-02 16:06:11, last login @ 2013-02-02 16:06:11
  38. 0printsilver96 registered @ 2013-02-02 16:06:12, last login @ 2013-02-02 16:06:12
  39. 0george3tempo registered @ 2013-02-02 16:06:27, last login @ 2013-02-02 16:06:27
  40. 0colonysex2 registered @ 2013-02-02 16:06:30, last login @ 2013-02-02 16:06:30
  41. 0chill6smoke registered @ 2013-02-02 16:06:30, last login @ 2013-02-02 16:06:30
  42. 0market0cave registered @ 2013-02-02 16:09:34, last login @ 2013-02-02 16:09:34
  43. 0hall90atom registered @ 2013-02-02 16:10:52, last login @ 2013-02-02 16:10:52
  44. 0anklefowl92 registered @ 2013-02-02 16:11:22, last login @ 2013-02-02 16:11:22
  45. 0soda71glove registered @ 2013-02-02 16:11:39, last login @ 2013-02-02 16:11:39
  46. 0lynxrayon17 registered @ 2013-02-02 16:12:52, last login @ 2013-02-02 16:12:52
  47. 0chancepeen59 registered @ 2013-02-02 16:13:09, last login @ 2013-02-02 16:13:09
  48. 0alarm12period registered @ 2013-02-02 16:13:26, last login @ 2013-02-02 16:13:26
  49. 0male81juice registered @ 2013-02-02 16:14:09, last login @ 2013-02-02 16:14:09
  50. 0handle3damage registered @ 2013-02-02 16:14:40, last login @ 2013-02-02 16:14:40
  51. 0thiskDeltDist registered @ 2013-02-02 16:15:34, last login @ 2013-02-02 16:15:34
  52. 0tub62mom registered @ 2013-02-02 16:15:43, last login @ 2013-02-02 16:15:43
  53. 0moneyoak2 registered @ 2013-02-02 16:17:06, last login @ 2013-02-02 16:17:06
  54. 0netbus74 registered @ 2013-02-02 16:21:44, last login @ 2013-02-02 16:21:44
  55. 0ironzephyr4 registered @ 2013-02-02 16:23:17, last login @ 2013-02-02 16:23:17
  56. 0detailmoat35 registered @ 2013-02-02 16:24:08, last login @ 2013-02-02 16:52:12
  57. 0clover34net registered @ 2013-02-02 16:25:58, last login @ 2013-02-02 16:32:55
  58. 0mapbarber99 registered @ 2013-02-02 16:30:44, last login @ 2013-02-02 16:55:44
  59. 0galleypeony6 registered @ 2013-02-02 16:30:52, last login @ 2013-02-02 16:30:52
  60. 0dish39oval registered @ 2013-02-02 16:31:31, last login @ 2013-02-02 16:57:44
  61. 0buttonbite8 registered @ 2013-02-02 16:32:22, last login @ 2013-02-02 16:32:22
  62. 0cream6party registered @ 2013-02-02 16:32:28, last login @ 2013-02-02 16:32:28
  63. 0clave6height registered @ 2013-02-02 16:33:00, last login @ 2013-02-02 16:58:05
  64. 0skatefog80 registered @ 2013-02-02 16:33:29, last login @ 2013-02-02 16:33:29
  65. 0angerniece25 registered @ 2013-02-02 16:34:49, last login @ 2013-02-02 16:40:02
  66. 0krish_res registered @ 2013-02-02 16:35:36, last login @ 2013-02-02 16:37:44
  67. 0Sambora666 registered @ 2013-02-02 16:37:25, last login @ 2013-02-02 16:37:25
  68. 0moatground6 registered @ 2013-02-02 16:41:09, last login @ 2013-02-02 16:41:09
  69. 0room58sofa registered @ 2013-02-02 16:42:44, last login @ 2013-02-02 16:52:01
  70. 0switchfine3 registered @ 2013-02-02 16:43:03, last login @ 2013-02-02 16:43:03
  71. 0yardwrench6 registered @ 2013-02-02 16:43:21, last login @ 2013-02-02 16:43:21
  72. 0move2run registered @ 2013-02-02 16:45:12, last login @ 2013-02-02 16:45:12
  73. 0bead89puppy registered @ 2013-02-02 16:48:38, last login @ 2013-02-02 16:48:38
  74. 0mooncream65 registered @ 2013-02-02 16:51:10, last login @ 2013-02-02 16:51:10
  75. 0ton55buffer registered @ 2013-02-02 16:52:07, last login @ 2013-02-02 16:52:07
  76. 0viewbag2 registered @ 2013-02-02 16:52:23, last login @ 2013-02-02 16:52:23
  77. 0asiasauce6 registered @ 2013-02-02 16:52:56, last login @ 2013-02-02 16:52:56
  78. 0dibble32bolt registered @ 2013-02-02 16:55:02, last login @ 2013-02-02 16:55:02
  79. 0emilydiazy registered @ 2013-02-02 16:57:44, last login @ 2013-02-02 16:57:44
  80. 0sextennis68 registered @ 2013-02-02 16:58:05, last login @ 2013-02-02 16:58:05
  81. 0epoch35niece registered @ 2013-02-02 17:00:10, last login @ 2013-02-02 17:00:10
  82. 0shade48puffin registered @ 2013-02-02 17:02:15, last login @ 2013-02-02 17:21:32
  83. 0nose0blow registered @ 2013-02-02 17:02:21, last login @ 2013-02-02 17:36:40
  84. 0jaguarperu33 registered @ 2013-02-02 17:02:34, last login @ 2013-02-02 17:02:34
  85. 0forcebook60 registered @ 2013-02-02 17:02:48, last login @ 2013-02-02 17:02:48
  86. 0singmakeup67 registered @ 2013-02-02 17:04:18, last login @ 2013-02-02 17:04:18
  87. 0cocoa2fifth registered @ 2013-02-02 17:05:11, last login @ 2013-02-02 17:11:21
  88. 0riflegrape82 registered @ 2013-02-02 17:05:58, last login @ 2013-02-02 17:34:59
  89. 0anime3satin registered @ 2013-02-02 17:06:00, last login @ 2013-02-02 17:06:00
  90. 0clickplate1 registered @ 2013-02-02 17:07:32, last login @ 2013-02-02 17:07:32
  91. 0varuny registered @ 2013-02-02 17:07:55, last login @ 2013-02-02 17:07:55
  92. 0oak1target registered @ 2013-02-02 17:10:00, last login @ 2013-02-02 17:10:00
  93. 0asilonline9 registered @ 2013-02-02 17:10:34, last login @ 2013-02-02 17:31:30
  94. 0rain7dancer registered @ 2013-02-02 17:10:49, last login @ 2013-02-02 17:10:49
  95. 0plow5tights registered @ 2013-02-02 17:11:08, last login @ 2013-02-02 17:48:20
  96. 0olive3winter registered @ 2013-02-02 17:11:40, last login @ 2013-02-02 17:11:40
  97. 0lakemarch7 registered @ 2013-02-02 17:12:57, last login @ 2013-02-02 17:59:53
  98. 0basin25soda registered @ 2013-02-02 17:13:32, last login @ 2013-02-02 17:13:32
  99. 0heavenyear4 registered @ 2013-02-02 17:15:09, last login @ 2013-02-02 17:35:16
  100. 0velvet31catsup registered @ 2013-02-02 17:15:09, last login @ 2013-02-02 17:15:09
  101. 0showloss0 registered @ 2013-02-02 17:15:46, last login @ 2013-02-02 17:29:49

More...

[5772] [5771] [5770] [5769] [5768] [5767] [5766] [5765] [5764] [5763] [5762] [5761] [5760] [5759] [5758] [5757] [5756] [5755] [5754] [5753] ...[1]
Back to Top